Time;durP1;ratioP1;P1;durP2;ratioP2;P2;SDS_P1;SDS_P2;PMS_P1;PMS_P2;Temp;Humidity;BMP_temperature;BMP_pressure;BME280_temperature;BME280_humidity;BME280_pressure;Samples;Min_cycle;Max_cycle;Signal;HPM_P1;HPM_P2
2023/10/21 00:01:05;;;;;;;7.40;5.17;;;;;;;18.32;100.00;93744.69;5026881;28;20417;-82
2023/10/21 00:03:31;;;;;;;7.23;4.87;;;;;;;18.33;100.00;93744.41;5034330;28;20033;-82
2023/10/21 00:05:57;;;;;;;7.17;4.83;;;;;;;18.49;100.00;93747.06;5017131;28;20071;-82
2023/10/21 00:08:22;;;;;;;6.00;4.17;;;;;;;18.53;100.00;93754.22;5034928;28;20025;-81
2023/10/21 00:10:48;;;;;;;6.20;4.70;;;;;;;18.30;100.00;93758.22;5015415;28;20483;-81
2023/10/21 00:13:13;;;;;;;4.67;3.23;;;;;;;18.83;100.00;93757.91;5034104;28;20021;-81
2023/10/21 00:15:40;;;;;;;6.20;3.37;;;;;;;18.67;100.00;93758.97;5030456;28;20037;-82
2023/10/21 00:18:05;;;;;;;5.63;3.33;;;;;;;18.70;100.00;93756.56;5026300;28;20560;-82
2023/10/21 00:20:31;;;;;;;5.07;2.97;;;;;;;18.95;100.00;93754.97;5023930;28;20041;-82
2023/10/21 00:22:56;;;;;;;3.93;2.03;;;;;;;18.95;100.00;93760.28;5006587;28;20494;-82
2023/10/21 00:25:23;;;;;;;2.70;1.70;;;;;;;18.96;100.00;93759.22;5011764;28;20029;-82
2023/10/21 00:27:49;;;;;;;3.30;1.67;;;;;;;18.87;100.00;93755.50;5014537;28;20025;-81
2023/10/21 00:30:14;;;;;;;2.17;1.40;;;;;;;19.00;100.00;93758.38;5016076;28;20540;-81
2023/10/21 00:32:40;;;;;;;2.70;1.40;;;;;;;19.21;100.00;93775.06;5020204;28;20044;-81
2023/10/21 00:35:06;;;;;;;2.33;1.37;;;;;;;19.35;100.00;93780.63;5038463;28;20022;-82
2023/10/21 00:37:31;;;;;;;2.60;1.00;;;;;;;19.01;100.00;93772.50;5024934;28;20030;-82
2023/10/21 00:39:57;;;;;;;2.20;1.13;;;;;;;19.11;100.00;93777.00;5035739;28;20032;-81
2023/10/21 00:42:22;;;;;;;2.40;1.57;;;;;;;19.32;100.00;93781.19;5039035;28;20123;-83
2023/10/21 00:44:48;;;;;;;2.67;1.20;;;;;;;19.20;100.00;93784.16;5012458;28;20048;-81
2023/10/21 00:47:14;;;;;;;1.47;0.80;;;;;;;19.07;100.00;93792.72;5016213;28;20064;-81
2023/10/21 00:49:42;;;;;;;1.40;1.03;;;;;;;19.19;100.00;93803.09;5013655;28;20037;-80
2023/10/21 00:52:10;;;;;;;3.10;1.20;;;;;;;19.39;100.00;93799.53;5015844;28;20506;-82
2023/10/21 00:54:35;;;;;;;1.90;1.10;;;;;;;19.30;100.00;93800.09;5018738;28;20082;-82
2023/10/21 00:57:02;;;;;;;2.70;1.10;;;;;;;18.99;100.00;93817.25;5044530;28;20033;-82
2023/10/21 00:59:27;;;;;;;2.27;0.90;;;;;;;18.96;100.00;93821.25;5023947;28;20074;-82
2023/10/21 01:01:54;;;;;;;2.97;0.90;;;;;;;19.34;100.00;93815.53;5021766;28;20088;-82
2023/10/21 01:04:21;;;;;;;1.70;0.83;;;;;;;18.76;100.00;93819.44;5018926;28;20038;-81
2023/10/21 01:06:50;;;;;;;2.73;0.90;;;;;;;19.27;100.00;93816.63;5038837;28;20018;-82
2023/10/21 01:09:17;;;;;;;2.73;1.13;;;;;;;19.41;100.00;93830.16;5035743;28;20051;-82
2023/10/21 01:11:43;;;;;;;2.60;0.80;;;;;;;19.24;100.00;93817.16;5015473;28;20033;-82
2023/10/21 01:14:10;;;;;;;2.73;1.07;;;;;;;19.18;100.00;93828.94;5031540;28;20475;-81
2023/10/21 01:16:35;;;;;;;2.27;0.80;;;;;;;19.53;100.00;93829.84;5023336;28;20040;-82
2023/10/21 01:19:01;;;;;;;2.20;0.57;;;;;;;19.28;100.00;93830.75;5031344;28;20600;-82
2023/10/21 01:21:34;;;;;;;1.50;0.70;;;;;;;19.36;100.00;93840.06;5034314;28;20036;-82
2023/10/21 01:24:00;;;;;;;1.55;0.80;;;;;;;19.44;100.00;93842.16;5015294;28;20033;-82
2023/10/21 01:26:26;;;;;;;1.13;0.60;;;;;;;19.35;100.00;93849.94;5015084;28;20032;-82
2023/10/21 01:28:54;;;;;;;1.90;0.70;;;;;;;19.32;100.00;93855.78;5012427;28;20494;-81
2023/10/21 01:31:19;;;;;;;1.10;0.50;;;;;;;19.34;100.00;93850.97;5023391;28;20075;-82
2023/10/21 01:33:45;;;;;;;1.73;0.63;;;;;;;19.63;100.00;93856.50;5039302;28;20452;-81
2023/10/21 01:36:17;;;;;;;1.37;0.57;;;;;;;19.16;100.00;93862.22;5021011;28;20672;-82
2023/10/21 01:38:42;;;;;;;1.70;0.60;;;;;;;19.66;100.00;93866.63;5015024;28;20034;-82
2023/10/21 01:41:10;;;;;;;0.83;0.47;;;;;;;19.47;100.00;93858.38;5042042;28;20103;-82
2023/10/21 01:43:35;;;;;;;1.00;0.50;;;;;;;19.14;100.00;93877.69;5045459;28;20039;-83
2023/10/21 01:46:07;;;;;;;1.17;0.60;;;;;;;19.25;100.00;93876.59;5023377;28;20021;-82
2023/10/21 01:48:32;;;;;;;1.23;0.60;;;;;;;19.38;100.00;93868.00;5016158;28;20029;-82
2023/10/21 01:51:00;;;;;;;1.13;0.40;;;;;;;19.15;100.00;93874.75;5034543;28;20021;-82
2023/10/21 01:53:26;;;;;;;3.83;1.27;;;;;;;19.27;100.00;93869.13;5018091;28;20021;-83
2023/10/21 01:56:02;;;;;;;0.67;0.50;;;;;;;19.10;100.00;93874.75;5024318;28;20036;-82
2023/10/21 01:58:32;;;;;;;0.87;0.40;;;;;;;19.64;100.00;93874.06;5026928;28;20116;-83
2023/10/21 02:00:57;;;;;;;4.07;0.60;;;;;;;18.98;100.00;93885.72;5015468;28;20024;-82
2023/10/21 02:03:25;;;;;;;2.47;0.60;;;;;;;18.77;100.00;93892.91;5039154;28;20017;-83
2023/10/21 02:05:52;;;;;;;4.00;0.77;;;;;;;19.41;100.00;93902.13;5033518;28;20033;-82
2023/10/21 02:08:18;;;;;;;1.60;0.70;;;;;;;19.29;100.00;93904.31;5020975;28;20025;-83
2023/10/21 02:10:43;;;;;;;1.40;0.50;;;;;;;18.90;100.00;93899.56;5022625;28;20083;-83
2023/10/21 02:13:09;;;;;;;1.23;0.60;;;;;;;18.68;100.00;93918.47;5022064;28;20029;-83
2023/10/21 02:15:36;;;;;;;2.27;0.60;;;;;;;19.01;100.00;93906.50;5024836;28;20025;-83
2023/10/21 02:18:02;;;;;;;0.53;0.40;;;;;;;18.90;100.00;93912.88;5025104;28;20036;-82
2023/10/21 02:20:27;;;;;;;2.63;1.23;;;;;;;19.23;100.00;93927.50;5037730;28;20483;-83
2023/10/21 02:22:53;;;;;;;3.70;1.50;;;;;;;19.20;100.00;93935.22;5038984;28;20068;-82
2023/10/21 02:25:19;;;;;;;3.83;0.80;;;;;;;19.01;100.00;93938.44;5034556;28;20029;-82
2023/10/21 02:27:45;;;;;;;1.10;0.50;;;;;;;19.66;100.00;93948.47;5034565;28;20041;-83
2023/10/21 02:30:13;;;;;;;0.60;0.50;;;;;;;19.30;100.00;93943.19;5017658;28;20501;-82
2023/10/21 02:32:43;;;;;;;0.97;0.57;;;;;;;18.82;100.00;93953.38;5019726;28;20033;-82
2023/10/21 02:35:09;;;;;;;1.37;0.63;;;;;;;19.22;100.00;93959.75;5030886;28;20041;-82
2023/10/21 02:37:34;;;;;;;0.77;0.50;;;;;;;18.66;100.00;93960.50;5019341;28;20116;-83
2023/10/21 02:40:01;;;;;;;2.43;0.50;;;;;;;18.86;100.00;93962.41;5021449;28;20025;-82
2023/10/21 02:42:26;;;;;;;0.87;0.47;;;;;;;18.77;100.00;93970.13;5026463;28;20116;-82
2023/10/21 02:44:52;;;;;;;1.03;0.50;;;;;;;19.31;100.00;93969.59;5020705;28;20025;-82
2023/10/21 02:47:18;;;;;;;0.97;0.50;;;;;;;19.60;100.00;93969.00;5012979;28;20487;-82
2023/10/21 02:49:43;;;;;;;0.60;0.30;;;;;;;19.33;100.00;93979.19;5025073;28;20025;-82
2023/10/21 02:52:09;;;;;;;0.73;0.33;;;;;;;19.22;100.00;93973.06;5018334;28;20029;-82
2023/10/21 02:54:40;;;;;;;0.63;0.40;;;;;;;18.91;100.00;93978.38;5012597;28;20029;-82
2023/10/21 02:57:05;;;;;;;0.20;0.20;;;;;;;19.41;100.00;93982.06;5028796;28;20021;-82
2023/10/21 02:59:31;;;;;;;2.23;0.40;;;;;;;19.37;100.00;93970.38;5029768;28;20037;-82
2023/10/21 03:01:58;;;;;;;4.83;0.67;;;;;;;19.70;100.00;93973.53;5024891;28;20033;-82
2023/10/21 03:04:24;;;;;;;0.57;0.20;;;;;;;19.57;100.00;93979.41;5027785;28;20047;-82
2023/10/21 03:06:50;;;;;;;1.33;0.50;;;;;;;19.54;100.00;93981.53;5044009;28;20033;-83
2023/10/21 03:09:16;;;;;;;0.20;0.20;;;;;;;19.62;100.00;93985.53;5035201;28;20025;-82
2023/10/21 03:11:46;;;;;;;1.70;0.50;;;;;;;19.34;100.00;93991.44;5013440;28;20028;-82
2023/10/21 03:14:12;;;;;;;0.50;0.33;;;;;;;19.68;100.00;93983.66;5008532;28;20460;-82
2023/10/21 03:16:37;;;;;;;0.40;0.30;;;;;;;19.63;100.00;93995.13;5040245;28;20040;-82
2023/10/21 03:19:04;;;;;;;2.27;0.57;;;;;;;19.97;100.00;93995.31;5031251;28;20033;-82
2023/10/21 03:21:30;;;;;;;0.53;0.30;;;;;;;19.10;100.00;94004.50;5033369;28;20033;-82
2023/10/21 03:23:56;;;;;;;0.87;0.27;;;;;;;19.60;100.00;94008.19;5001705;28;20029;-81
2023/10/21 03:26:21;;;;;;;0.63;0.23;;;;;;;19.62;100.00;94020.19;5018572;28;20037;-83
2023/10/21 03:28:47;;;;;;;1.80;0.40;;;;;;;19.10;100.00;94012.50;5010526;28;20034;-82
2023/10/21 03:31:13;;;;;;;0.67;0.40;;;;;;;19.61;100.00;94026.56;5008536;28;20033;-83
2023/10/21 03:33:40;;;;;;;0.87;0.33;;;;;;;19.59;100.00;94033.25;5010055;28;20030;-82
2023/10/21 03:36:06;;;;;;;1.20;0.47;;;;;;;19.78;100.00;94037.78;5007345;28;20032;-82
2023/10/21 03:38:34;;;;;;;0.97;0.30;;;;;;;19.34;100.00;94037.53;5024693;28;20026;-82
2023/10/21 03:41:03;;;;;;;1.10;0.37;;;;;;;19.77;100.00;94051.38;5022699;28;20786;-82
2023/10/21 03:43:29;;;;;;;1.60;0.47;;;;;;;19.67;100.00;94048.72;5009932;28;20124;-82
2023/10/21 03:45:56;;;;;;;0.40;0.20;;;;;;;19.42;100.00;94041.53;5009967;28;20037;-82
2023/10/21 03:48:23;;;;;;;0.17;0.17;;;;;;;19.83;100.00;94050.31;5001245;28;20021;-82
2023/10/21 03:50:52;;;;;;;0.77;0.40;;;;;;;19.46;100.00;94063.91;5020883;28;20026;-83
2023/10/21 03:53:17;;;;;;;1.37;0.20;;;;;;;19.45;100.00;94065.78;5025310;28;20033;-83
2023/10/21 03:55:44;;;;;;;0.63;0.50;;;;;;;19.81;100.00;94070.31;5024257;28;20056;-83
2023/10/21 03:58:10;;;;;;;0.30;0.27;;;;;;;19.57;100.00;94070.03;5035229;28;20116;-82
2023/10/21 04:00:37;;;;;;;3.13;0.87;;;;;;;19.79;100.00;94067.91;5016781;28;20037;-82
2023/10/21 04:03:03;;;;;;;0.27;0.20;;;;;;;20.20;100.00;94073.94;5027358;28;20391;-82
2023/10/21 04:05:29;;;;;;;5.23;0.50;;;;;;;19.89;100.00;94073.22;5027900;28;20156;-83
2023/10/21 04:08:04;;;;;;;1.33;0.40;;;;;;;19.93;100.00;94078.81;5043226;28;20487;-82
2023/10/21 04:10:30;;;;;;;2.60;0.57;;;;;;;19.57;100.00;94086.03;5013190;28;20029;-82
2023/10/21 04:12:55;;;;;;;0.53;0.27;;;;;;;20.02;100.00;94094.00;5032667;28;20029;-83
2023/10/21 04:15:21;;;;;;;1.97;0.37;;;;;;;19.80;100.00;94090.84;5040049;28;20029;-83
2023/10/21 04:17:48;;;;;;;0.67;0.30;;;;;;;20.30;100.00;94094.47;5018055;28;20435;-83
2023/10/21 04:20:16;;;;;;;0.33;0.20;;;;;;;19.31;100.00;94104.69;5013011;28;20026;-83
2023/10/21 04:22:41;;;;;;;0.47;0.20;;;;;;;19.75;100.00;94113.00;5029801;28;20041;-83
2023/10/21 04:25:08;;;;;;;0.73;0.30;;;;;;;20.06;100.00;94112.94;5012748;28;20052;-82
2023/10/21 04:27:33;;;;;;;1.03;0.30;;;;;;;19.53;100.00;94105.22;5009364;28;20029;-82
2023/10/21 04:29:59;;;;;;;0.30;0.30;;;;;;;19.87;100.00;94103.91;5020498;28;20029;-83
2023/10/21 04:32:27;;;;;;;0.20;0.20;;;;;;;19.48;100.00;94110.56;5027855;28;20037;-82
2023/10/21 04:34:53;;;;;;;0.30;0.30;;;;;;;19.66;100.00;94111.13;5033429;28;20033;-82
2023/10/21 04:37:18;;;;;;;1.47;0.37;;;;;;;19.65;100.00;94117.50;5032173;28;20406;-82
2023/10/21 04:39:44;;;;;;;2.73;0.33;;;;;;;19.66;100.00;94125.25;5016900;28;20487;-82
2023/10/21 04:42:10;;;;;;;0.63;0.30;;;;;;;19.38;100.00;94137.19;5031804;28;20033;-82
2023/10/21 04:44:37;;;;;;;0.63;0.40;;;;;;;19.66;100.00;94140.47;5013370;28;20041;-82
2023/10/21 04:47:03;;;;;;;0.40;0.23;;;;;;;19.76;100.00;94133.25;5034600;28;20387;-82
2023/10/21 04:49:28;;;;;;;0.97;0.30;;;;;;;20.06;100.00;94136.16;5026101;28;20037;-82
2023/10/21 04:51:54;;;;;;;2.80;0.40;;;;;;;20.10;100.00;94137.22;5024757;28;20706;-82
2023/10/21 04:54:19;;;;;;;0.77;0.20;;;;;;;20.45;100.00;94137.09;5016644;28;20036;-83
2023/10/21 04:56:45;;;;;;;0.50;0.27;;;;;;;20.01;100.00;94148.41;5027157;28;20425;-82
2023/10/21 04:59:10;;;;;;;0.60;0.20;;;;;;;19.64;100.00;94146.03;5031507;28;20802;-82
2023/10/21 05:01:36;;;;;;;0.27;0.20;;;;;;;19.93;100.00;94164.97;5015292;28;20487;-82
2023/10/21 05:04:01;;;;;;;0.27;0.20;;;;;;;20.52;100.00;94168.09;5037154;28;20040;-83
2023/10/21 05:06:27;;;;;;;0.73;0.23;;;;;;;20.08;100.00;94172.16;5013920;28;20021;-82
2023/10/21 05:08:53;;;;;;;0.30;0.30;;;;;;;20.04;100.00;94170.31;5027910;28;20030;-82
2023/10/21 05:11:18;;;;;;;0.20;0.20;;;;;;;20.69;100.00;94176.59;5012994;28;20464;-82
2023/10/21 05:13:46;;;;;;;1.90;0.40;;;;;;;20.41;100.00;94192.13;5029998;28;20026;-82
2023/10/21 05:16:11;;;;;;;0.90;0.40;;;;;;;20.42;100.00;94193.75;5037472;28;20078;-83
2023/10/21 05:18:48;;;;;;;0.53;0.20;;;;;;;19.75;100.00;94195.66;5054499;28;20033;-82
2023/10/21 05:21:15;;;;;;;1.63;0.50;;;;;;;20.24;100.00;94207.66;5032189;28;20033;-82
2023/10/21 05:23:40;;;;;;;1.10;0.50;;;;;;;20.18;100.00;94206.84;5030033;28;20054;-82
2023/10/21 05:26:06;;;;;;;0.83;0.40;;;;;;;20.40;100.00;94221.78;5036791;28;20390;-83
2023/10/21 05:28:39;;;;;;;0.27;0.27;;;;;;;20.07;100.00;94228.47;5037623;28;20045;-83
2023/10/21 05:31:04;;;;;;;0.65;0.22;;;;;;;20.70;100.00;94232.41;5024505;28;20129;-83
2023/10/21 05:33:30;;;;;;;2.00;0.40;;;;;;;20.52;100.00;94241.00;5029243;28;20021;-83
2023/10/21 05:35:59;;;;;;;3.70;0.37;;;;;;;20.80;100.00;94244.16;5029117;28;20021;-83
2023/10/21 05:38:29;;;;;;;1.47;0.47;;;;;;;20.52;100.00;94253.53;5010663;28;20083;-81
2023/10/21 05:40:57;;;;;;;1.33;0.30;;;;;;;20.56;100.00;94257.31;5013397;28;20047;-81
2023/10/21 05:43:23;;;;;;;2.50;0.70;;;;;;;20.52;100.00;94266.91;5030233;28;20045;-81
2023/10/21 05:45:48;;;;;;;1.37;0.50;;;;;;;20.41;100.00;94268.75;5045673;28;20663;-81
2023/10/21 05:48:17;;;;;;;2.50;0.80;;;;;;;20.71;100.00;94270.59;5027453;28;20044;-81
2023/10/21 05:50:43;;;;;;;3.63;0.80;;;;;;;20.15;100.00;94283.97;5041426;28;20083;-81
2023/10/21 05:53:08;;;;;;;2.13;0.80;;;;;;;19.85;100.00;94290.91;5025349;28;20747;-81
2023/10/21 05:55:40;;;;;;;1.20;0.57;;;;;;;20.22;100.00;94287.16;5010858;28;20040;-81
2023/10/21 05:58:05;;;;;;;1.87;0.77;;;;;;;19.94;100.00;94294.63;5036021;28;20116;-81
2023/10/21 06:00:31;;;;;;;2.03;0.90;;;;;;;20.00;100.00;94292.78;5021036;28;20021;-81
2023/10/21 06:03:11;;;;;;;1.70;0.70;;;;;;;20.27;100.00;94302.41;5034580;28;20078;-81
2023/10/21 06:05:47;;;;;;;2.80;0.80;;;;;;;20.12;100.00;94305.84;5015793;28;20021;-81
2023/10/21 06:08:12;;;;;;;7.20;1.40;;;;;;;19.90;100.00;94311.44;5033015;28;20502;-81
2023/10/21 06:10:39;;;;;;;12.90;4.13;;;;;;;20.08;100.00;94316.25;5018173;28;20034;-81
2023/10/21 06:13:05;;;;;;;6.83;2.03;;;;;;;20.06;100.00;94307.72;5027890;28;20083;-81
2023/10/21 06:15:32;;;;;;;6.63;1.70;;;;;;;19.85;100.00;94320.25;5031088;28;20082;-82
2023/10/21 06:18:00;;;;;;;3.07;1.00;;;;;;;20.17;100.00;94324.53;5020103;28;20036;-81
2023/10/21 06:20:29;;;;;;;1.13;0.50;;;;;;;20.75;100.00;94327.75;5034552;28;20021;-81
2023/10/21 06:22:54;;;;;;;1.07;0.50;;;;;;;20.30;100.00;94329.34;5021966;28;20033;-81
2023/10/21 06:25:20;;;;;;;1.80;0.70;;;;;;;20.14;100.00;94335.75;5026701;28;20026;-81
2023/10/21 06:27:45;;;;;;;1.77;0.60;;;;;;;21.11;100.00;94338.38;5011391;28;20120;-81
2023/10/21 06:30:11;;;;;;;2.33;0.60;;;;;;;20.67;100.00;94349.69;5028195;28;20052;-81
2023/10/21 06:32:45;;;;;;;1.97;0.50;;;;;;;21.07;100.00;94343.47;5027129;28;20025;-82
2023/10/21 06:35:11;;;;;;;1.57;0.80;;;;;;;20.87;100.00;94355.00;5008490;28;20037;-83
2023/10/21 06:37:37;;;;;;;0.93;0.30;;;;;;;20.73;100.00;94359.31;5027281;28;20698;-81
2023/10/21 06:40:04;;;;;;;2.87;0.30;;;;;;;20.88;100.00;94367.28;5010167;28;20064;-81
2023/10/21 06:42:30;;;;;;;1.10;0.47;;;;;;;21.04;100.00;94368.06;5024711;28;20029;-82
2023/10/21 06:44:55;;;;;;;1.90;0.47;;;;;;;21.16;100.00;94370.47;5036620;28;20078;-82
2023/10/21 06:47:21;;;;;;;1.67;0.40;;;;;;;20.70;100.00;94378.53;5022149;28;20024;-82
2023/10/21 06:49:47;;;;;;;1.20;0.57;;;;;;;21.02;100.00;94378.22;5014134;28;20036;-82
2023/10/21 06:52:13;;;;;;;1.83;0.90;;;;;;;21.30;100.00;94379.50;5028651;28;20623;-82
2023/10/21 06:54:40;;;;;;;2.50;0.60;;;;;;;21.74;100.00;94378.84;5013710;28;20082;-82
2023/10/21 06:57:06;;;;;;;5.33;0.90;;;;;;;21.39;100.00;94391.28;5003351;28;20040;-84
2023/10/21 06:59:37;;;;;;;6.97;3.13;;;;;;;21.35;100.00;94389.41;5032498;28;20018;-89
2023/10/21 07:02:04;;;;;;;7.27;2.77;;;;;;;21.81;100.00;94398.06;5009195;28;20047;-85
2023/10/21 07:04:30;;;;;;;5.47;1.60;;;;;;;21.70;100.00;94399.22;5026455;28;20048;-85
2023/10/21 07:06:56;;;;;;;4.93;1.90;;;;;;;21.83;100.00;94409.31;5022773;28;20020;-85
2023/10/21 07:09:21;;;;;;;7.80;1.98;;;;;;;22.05;100.00;94416.97;5018022;28;20025;-86
2023/10/21 07:11:47;;;;;;;9.20;2.30;;;;;;;22.39;100.00;94410.13;5024004;28;20029;-87
2023/10/21 07:14:13;;;;;;;10.90;1.57;;;;;;;22.48;100.00;94424.53;5028325;28;20025;-85
2023/10/21 07:16:40;;;;;;;0.90;0.57;;;;;;;22.46;90.49;94432.81;5026689;28;20037;-83
2023/10/21 07:19:05;;;;;;;3.42;1.23;;;;;;;22.48;92.22;94429.88;5023308;28;20029;-83
2023/10/21 07:21:32;;;;;;;3.33;0.80;;;;;;;22.63;91.35;94440.47;5030970;28;21534;-84
2023/10/21 07:23:58;;;;;;;6.57;1.45;;;;;;;23.52;86.06;94442.97;5027029;28;20040;-82
2023/10/21 07:26:23;;;;;;;2.95;1.20;;;;;;;23.85;80.49;94440.53;5010369;28;20037;-84
2023/10/21 07:28:50;;;;;;;5.07;1.95;;;;;;;24.91;72.21;94445.53;5009980;28;20029;-84
2023/10/21 07:31:16;;;;;;;1.35;0.82;;;;;;;25.41;67.23;94445.81;5009635;28;20112;-83
2023/10/21 07:33:41;;;;;;;2.33;0.95;;;;;;;26.06;62.36;94453.78;5008983;28;20076;-84
2023/10/21 07:36:07;;;;;;;1.77;0.70;;;;;;;25.66;62.42;94463.41;5014041;28;20096;-83
2023/10/21 07:38:33;;;;;;;2.50;0.77;;;;;;;26.19;59.92;94467.53;5012120;28;20033;-84
2023/10/21 07:41:10;;;;;;;1.25;0.75;;;;;;;26.47;58.79;94463.75;5031883;28;20430;-84
2023/10/21 07:43:36;;;;;;;2.17;0.73;;;;;;;26.31;58.88;94475.91;5027508;28;20033;-84
2023/10/21 07:46:03;;;;;;;1.35;0.73;;;;;;;26.00;59.89;94489.19;5017277;28;20036;-84
2023/10/21 07:48:31;;;;;;;3.30;0.60;;;;;;;25.32;62.22;94502.22;5015747;28;20029;-84
2023/10/21 07:50:58;;;;;;;1.48;0.43;;;;;;;24.48;69.38;94507.47;5014804;28;20025;-85
2023/10/21 07:53:25;;;;;;;1.88;0.70;;;;;;;25.29;67.85;94510.06;5024254;28;20021;-85
2023/10/21 07:55:51;;;;;;;0.85;0.70;;;;;;;23.88;73.86;94510.53;5010997;28;20355;-84
2023/10/21 07:58:17;;;;;;;1.75;0.50;;;;;;;23.90;76.08;94515.63;5026506;28;20022;-84
2023/10/21 08:00:43;;;;;;;1.73;0.50;;;;;;;23.14;83.37;94528.63;5017688;28;20135;-84
2023/10/21 08:03:08;;;;;;;1.65;0.65;;;;;;;23.51;80.08;94521.88;5023918;28;20029;-83
2023/10/21 08:05:34;;;;;;;2.80;0.80;;;;;;;23.39;79.55;94518.75;5010607;28;20033;-84
2023/10/21 08:08:08;;;;;;;1.02;0.60;;;;;;;23.74;79.62;94526.53;5045841;28;20017;-84
2023/10/21 08:10:35;;;;;;;3.00;1.20;;;;;;;23.07;83.82;94530.78;5018575;28;20091;-86
2023/10/21 08:13:15;;;;;;;1.33;0.65;;;;;;;23.54;78.75;94532.06;5013075;28;20038;-86
2023/10/21 08:15:41;;;;;;;3.25;0.50;;;;;;;23.67;76.03;94531.38;5029307;28;20031;-86
2023/10/21 08:18:20;;;;;;;2.45;0.75;;;;;;;24.88;69.12;94532.97;5018421;28;20017;-83
2023/10/21 08:20:45;;;;;;;0.70;0.40;;;;;;;24.69;68.41;94535.66;5012247;28;20017;-84
2023/10/21 08:23:11;;;;;;;1.05;0.43;;;;;;;25.39;66.36;94534.94;5011526;28;20025;-84
2023/10/21 08:25:55;;;;;;;1.25;0.40;;;;;;;27.01;58.46;94532.13;5034441;28;20031;-83
2023/10/21 08:28:20;;;;;;;0.40;0.30;;;;;;;27.60;54.47;94531.28;5008116;28;20117;-84
2023/10/21 08:30:49;;;;;;;2.63;0.68;;;;;;;26.66;54.45;94540.97;5029511;28;20016;-84
2023/10/21 08:33:15;;;;;;;0.88;0.38;;;;;;;25.54;58.50;94560.78;5021756;28;20132;-84
2023/10/21 08:35:42;;;;;;;1.48;0.50;;;;;;;26.40;55.57;94559.56;5025389;28;20036;-84
2023/10/21 08:38:09;;;;;;;1.17;0.40;;;;;;;26.83;54.96;94562.75;5032805;28;20032;-84
2023/10/21 08:40:38;;;;;;;1.10;0.47;;;;;;;26.59;52.53;94567.56;5013442;28;20068;-84
2023/10/21 08:43:33;;;;;;;3.55;0.40;;;;;;;26.99;52.20;94572.06;5016027;28;20048;-84
2023/10/21 08:46:15;;;;;;;1.58;0.40;;;;;;;28.21;49.51;94570.28;5007304;28;20036;-84
2023/10/21 08:48:46;;;;;;;0.30;0.30;;;;;;;27.76;49.67;94572.22;5016930;28;20119;-84
2023/10/21 08:51:20;;;;;;;0.95;0.40;;;;;;;28.45;48.89;94577.25;5035932;28;20573;-84
2023/10/21 08:53:47;;;;;;;1.17;0.40;;;;;;;26.88;50.60;94597.69;5014622;28;20382;-84
2023/10/21 08:56:16;;;;;;;0.75;0.30;;;;;;;26.89;50.92;94588.47;5020630;28;20033;-83
2023/10/21 08:58:42;;;;;;;0.80;0.50;;;;;;;27.33;51.79;94600.53;5020161;28;20115;-84
2023/10/21 09:01:09;;;;;;;0.82;0.25;;;;;;;26.61;51.04;94597.72;5020319;28;20119;-84
2023/10/21 09:03:34;;;;;;;3.60;0.63;;;;;;;27.44;50.27;94599.19;5021008;28;20037;-86
2023/10/21 09:06:20;;;;;;;1.20;0.60;;;;;;;27.46;49.11;94599.69;5031316;28;20033;-85
2023/10/21 09:08:49;;;;;;;1.02;0.52;;;;;;;27.37;49.33;94598.03;5008455;28;20046;-86
2023/10/21 09:11:23;;;;;;;2.92;0.30;;;;;;;25.20;53.03;94608.69;5035180;28;20108;-88
2023/10/21 09:13:52;;;;;;;0.32;0.20;;;;;;;24.60;53.08;94623.38;5023632;28;20029;-87
2023/10/21 09:16:23;;;;;;;0.52;0.20;;;;;;;25.20;54.28;94624.81;5014549;28;20653;-87
2023/10/21 09:19:07;;;;;;;1.00;0.50;;;;;;;25.34;55.69;94621.09;5024248;28;20033;-85
2023/10/21 09:21:44;;;;;;;3.55;0.80;;;;;;;24.39;59.23;94624.69;5005445;28;20027;-84
2023/10/21 09:24:10;;;;;;;6.15;3.45;;;;;;;24.35;58.51;94629.81;5028353;28;20853;-85
2023/10/21 09:26:37;;;;;;;2.03;0.50;;;;;;;24.37;59.35;94626.84;5041120;28;20021;-84
2023/10/21 09:29:13;;;;;;;1.13;0.30;;;;;;;24.35;59.80;94626.34;5033713;28;20036;-86
2023/10/21 09:31:47;;;;;;;0.20;0.20;;;;;;;24.87;57.85;94635.44;5039395;28;20082;-86
2023/10/21 09:34:33;;;;;;;2.30;0.40;;;;;;;24.89;58.32;94639.44;5030317;28;20494;-87
2023/10/21 09:36:59;;;;;;;0.88;0.30;;;;;;;24.59;56.67;94635.22;5026201;28;20112;-85
2023/10/21 09:39:32;;;;;;;1.55;0.30;;;;;;;24.78;54.33;94639.84;5040108;28;20109;-86
2023/10/21 09:42:02;;;;;;;1.08;0.32;;;;;;;25.22;54.09;94634.22;5035542;28;20033;-86
2023/10/21 09:44:27;;;;;;;1.38;0.30;;;;;;;25.67;52.56;94642.69;5038276;28;20423;-86
2023/10/21 09:46:58;;;;;;;1.23;0.40;;;;;;;24.87;53.90;94643.50;5024139;28;20082;-86
2023/10/21 09:49:25;;;;;;;3.10;0.60;;;;;;;25.00;51.91;94636.63;5023975;28;20101;-86
2023/10/21 09:52:06;;;;;;;2.17;0.52;;;;;;;25.91;50.63;94644.50;5012711;28;20029;-86
2023/10/21 09:54:44;;;;;;;2.13;0.70;;;;;;;26.57;50.44;94648.75;5012795;28;20471;-86
2023/10/21 09:57:12;;;;;;;1.60;0.50;;;;;;;26.56;48.09;94641.75;5011783;28;20091;-86
2023/10/21 09:59:39;;;;;;;1.40;0.40;;;;;;;26.69;47.93;94648.22;5016032;28;20037;-86
2023/10/21 10:02:06;;;;;;;2.33;0.40;;;;;;;28.02;47.03;94648.88;5023531;28;20030;-86
2023/10/21 10:04:38;;;;;;;0.75;0.30;;;;;;;28.34;44.53;94642.38;5006744;28;20017;-86
2023/10/21 10:07:07;;;;;;;2.25;0.50;;;;;;;28.33;44.20;94646.19;5027047;28;20636;-86
2023/10/21 10:09:39;;;;;;;2.83;0.50;;;;;;;27.12;45.44;94654.09;5032725;28;20028;-86
2023/10/21 10:12:12;;;;;;;1.83;0.50;;;;;;;27.17;45.14;94658.66;5013731;28;20025;-85
2023/10/21 10:14:38;;;;;;;2.67;0.40;;;;;;;26.46;45.75;94663.47;5029032;28;20037;-86
2023/10/21 10:17:07;;;;;;;4.03;0.75;;;;;;;27.34;45.35;94660.72;5015055;28;20037;-86
2023/10/21 10:19:40;;;;;;;1.77;0.45;;;;;;;27.22;45.45;94669.31;5016511;28;20037;-86
2023/10/21 10:22:42;;;;;;;1.92;0.52;;;;;;;25.91;45.89;94671.44;5025204;28;20087;-86
2023/10/21 10:25:10;;;;;;;1.45;0.40;;;;;;;25.99;47.33;94670.75;5022724;28;20026;-85
2023/10/21 10:27:42;;;;;;;0.88;0.30;;;;;;;25.92;48.34;94681.09;5015628;28;20021;-86
2023/10/21 10:30:19;;;;;;;1.00;0.45;;;;;;;26.23;46.70;94681.41;5034788;28;20027;-86
2023/10/21 10:32:50;;;;;;;4.35;3.08;;;;;;;26.58;46.57;94677.28;5014614;28;20033;-86
2023/10/21 10:35:42;;;;;;;4.18;0.60;;;;;;;27.17;44.40;94672.94;5028500;28;20037;-86
2023/10/21 10:38:46;;;;;;;1.15;0.30;;;;;;;26.88;44.48;94678.59;5038145;28;20022;-86
2023/10/21 10:41:16;;;;;;;1.40;0.40;;;;;;;27.71;44.38;94678.50;4966899;28;20486;-86
2023/10/21 10:43:49;;;;;;;2.05;0.47;;;;;;;27.45;44.74;94676.38;5027350;28;20034;-88
2023/10/21 10:46:21;;;;;;;7.85;1.10;;;;;;;27.52;44.98;94675.16;5022727;28;20095;-88
2023/10/21 10:48:47;;;;;;;1.88;0.60;;;;;;;26.43;45.87;94681.06;5032777;28;20052;-83
2023/10/21 10:51:15;;;;;;;0.63;0.50;;;;;;;28.83;43.28;94673.00;5020557;28;20060;-84
2023/10/21 10:53:54;;;;;;;1.83;0.50;;;;;;;29.52;42.16;94674.31;5011829;28;20033;-83
2023/10/21 10:56:46;;;;;;;0.32;0.30;;;;;;;29.30;42.00;94669.81;5008952;28;20036;-83
2023/10/21 10:59:18;;;;;;;1.73;0.50;;;;;;;29.17;40.87;94673.47;5032131;28;20088;-84
2023/10/21 11:02:03;;;;;;;1.48;0.52;;;;;;;28.68;43.05;94668.03;5014108;28;20036;-86
2023/10/21 11:04:44;;;;;;;3.58;0.68;;;;;;;27.64;43.17;94662.72;5022890;28;20152;-83
2023/10/21 11:07:11;;;;;;;1.95;0.47;;;;;;;27.90;42.88;94662.94;5019195;28;20433;-83
2023/10/21 11:09:37;;;;;;;2.17;0.50;;;;;;;27.50;43.05;94662.75;5026510;28;20026;-83
2023/10/21 11:12:09;;;;;;;1.27;0.40;;;;;;;27.24;44.96;94675.22;5014050;28;20175;-85
2023/10/21 11:14:35;;;;;;;1.92;0.90;;;;;;;25.88;47.47;94680.09;5033632;28;20020;-82
2023/10/21 11:17:04;;;;;;;1.40;0.40;;;;;;;25.57;46.77;94675.94;5024844;28;20128;-82
2023/10/21 11:19:31;;;;;;;2.15;0.40;;;;;;;25.68;45.59;94681.97;5010407;28;20063;-81
2023/10/21 11:21:56;;;;;;;1.13;0.47;;;;;;;26.40;44.83;94676.25;5035780;28;20033;-83
2023/10/21 11:24:40;;;;;;;2.17;0.70;;;;;;;25.59;47.10;94683.75;5026598;28;20546;-83
2023/10/21 11:27:06;;;;;;;0.65;0.40;;;;;;;25.48;46.33;94691.13;5006341;28;20026;-83
2023/10/21 11:29:41;;;;;;;1.48;0.50;;;;;;;26.20;46.75;94690.09;5029369;28;20510;-83
2023/10/21 11:32:12;;;;;;;0.95;0.50;;;;;;;25.99;46.32;94687.72;5039381;28;20052;-86
2023/10/21 11:34:44;;;;;;;2.60;0.63;;;;;;;26.12;47.16;94686.16;5041482;28;20025;-83